Andalusia, Alabama
Current Conditions -  °F | °C
As of 6:56 AM on Thursday 30 Oct 2014 (Local Time) from K79J Reporting Station
Scattered Clouds Scattered Clouds  
Wind Chill: 59°   Ceiling: Unl
Heat Index: 59°   Visibility: 10mi
Dew Point: 50°   Wind: 0mph
Humidity: 72%   Direction: NA
Pressure: 30.07"   Gusts: NA
Location:  31.32°N, 86.49°W
Report Text: K79J 301156Z AUTO 00000KT 10SM SCT080 15/10 A3007 RMK AO2 SLP179 T01500100 10200 20150 53009
Loading
Personal Weather Stations






























Interactive Weather Map
Tropical Storm Tracking
New forecast layout! Learn more

10-Day Weather Forecast

Advertisements
Track Severe Weather on mobile